createdAt,value
2023-04-17T00:01:39.773Z,20.70
2023-04-17T00:04:13.966Z,20.70
2023-04-17T00:06:46.212Z,20.70
2023-04-17T00:09:17.669Z,20.80
2023-04-17T00:11:49.314Z,20.80
2023-04-17T00:14:20.754Z,20.90
2023-04-17T00:16:52.505Z,20.90
2023-04-17T00:19:24.170Z,21.00
2023-04-17T00:22:04.511Z,21.10
2023-04-17T00:24:36.194Z,21.10
2023-04-17T00:27:07.627Z,21.20
2023-04-17T00:29:39.328Z,21.20
2023-04-17T00:32:11.065Z,21.20
2023-04-17T00:34:42.687Z,21.30
2023-04-17T00:37:14.012Z,21.40
2023-04-17T00:39:45.454Z,21.50
2023-04-17T00:42:16.654Z,21.60
2023-04-17T00:44:48.141Z,21.60
2023-04-17T00:47:20.235Z,21.80
2023-04-17T00:49:54.303Z,21.90
2023-04-17T00:52:32.450Z,22.00
2023-04-17T00:55:08.802Z,22.10
2023-04-17T00:57:40.336Z,22.30
2023-04-17T01:00:12.846Z,22.30
2023-04-17T01:02:44.296Z,22.30
2023-04-17T01:05:21.856Z,22.40
2023-04-17T01:07:53.336Z,22.50
2023-04-17T01:10:24.951Z,22.60
2023-04-17T01:13:09.758Z,22.70
2023-04-17T01:15:44.424Z,22.80
2023-04-17T01:18:16.501Z,22.70
2023-04-17T01:20:47.804Z,23.00
2023-04-17T01:23:21.220Z,23.10
2023-04-17T01:25:52.858Z,23.30
2023-04-17T01:28:24.398Z,23.40
2023-04-17T01:30:56.345Z,23.60
2023-04-17T01:33:27.949Z,23.70
2023-04-17T01:36:00.563Z,23.90
2023-04-17T01:38:32.475Z,24.00
2023-04-17T01:41:11.438Z,24.10
2023-04-17T01:43:47.242Z,24.20
2023-04-17T01:46:18.811Z,24.30
2023-04-17T01:48:50.079Z,24.30
2023-04-17T01:51:21.331Z,24.60
2023-04-17T01:53:56.731Z,24.80
2023-04-17T01:56:28.625Z,24.90
2023-04-17T01:59:00.116Z,25.00
2023-04-17T02:01:32.022Z,25.00
2023-04-17T02:04:03.752Z,25.10
2023-04-17T02:06:35.262Z,25.10
2023-04-17T02:09:07.979Z,25.20
2023-04-17T02:11:42.991Z,25.20
2023-04-17T02:14:15.243Z,25.20
2023-04-17T02:16:48.200Z,25.20
2023-04-17T02:19:19.458Z,25.40
2023-04-17T02:21:50.736Z,25.40
2023-04-17T02:24:22.116Z,25.40
2023-04-17T02:26:53.598Z,25.50
2023-04-17T02:29:25.104Z,25.50
2023-04-17T02:31:56.362Z,25.70
2023-04-17T02:34:27.918Z,25.80
2023-04-17T02:37:06.995Z,26.00
2023-04-17T02:39:40.664Z,26.00
2023-04-17T02:42:31.670Z,26.10
2023-04-17T02:45:03.052Z,26.00
2023-04-17T02:47:34.648Z,26.10
2023-04-17T02:50:08.788Z,26.10
2023-04-17T02:52:48.373Z,26.10
2023-04-17T02:55:20.065Z,26.00
2023-04-17T02:57:51.363Z,26.00
2023-04-17T03:00:42.802Z,26.20
2023-04-17T03:03:18.997Z,26.20
2023-04-17T03:05:50.325Z,26.20
2023-04-17T03:08:25.105Z,26.40
2023-04-17T03:11:05.505Z,26.50
2023-04-17T03:13:38.440Z,26.60
2023-04-17T03:16:09.840Z,26.60
2023-04-17T03:18:43.456Z,26.70
2023-04-17T03:21:14.710Z,26.80
2023-04-17T03:23:46.899Z,27.00
2023-04-17T03:26:18.550Z,27.00
2023-04-17T03:28:49.894Z,27.00
2023-04-17T03:31:23.098Z,27.10
2023-04-17T03:33:55.924Z,26.90
2023-04-17T03:36:28.724Z,26.90
2023-04-17T03:39:03.934Z,26.90
2023-04-17T03:41:36.245Z,26.90
2023-04-17T03:44:08.847Z,27.00
2023-04-17T03:46:41.315Z,27.00
2023-04-17T03:49:15.839Z,27.20
2023-04-17T03:51:48.511Z,27.30
2023-04-17T03:54:24.173Z,27.30
2023-04-17T03:56:58.546Z,27.10
2023-04-17T03:59:30.478Z,26.90
2023-04-17T04:02:02.256Z,26.70
2023-04-17T04:04:38.654Z,26.50
2023-04-17T04:07:14.917Z,26.70
2023-04-17T04:10:05.919Z,26.50
2023-04-17T04:12:42.183Z,26.20
2023-04-17T04:15:36.544Z,26.20
2023-04-17T04:18:10.612Z,26.30
2023-04-17T04:20:42.888Z,26.00
2023-04-17T04:23:22.602Z,26.00
2023-04-17T04:26:14.025Z,26.00
2023-04-17T04:29:13.152Z,26.10
2023-04-17T04:31:55.774Z,26.30
2023-04-17T04:34:31.740Z,26.30
2023-04-17T04:37:44.488Z,26.30
2023-04-17T04:40:17.335Z,26.20
2023-04-17T04:42:52.778Z,26.00
2023-04-17T04:45:32.830Z,26.00
2023-04-17T04:48:17.144Z,26.00
2023-04-17T04:50:49.409Z,25.90
2023-04-17T04:53:22.838Z,25.90
2023-04-17T04:55:59.199Z,25.90
2023-04-17T04:58:31.955Z,26.00
2023-04-17T05:01:06.916Z,26.10
2023-04-17T05:03:47.145Z,25.90
2023-04-17T05:07:17.770Z,25.90
2023-04-17T05:12:59.435Z,26.00
2023-04-17T05:15:53.285Z,25.90
2023-04-17T05:18:32.203Z,25.80
2023-04-17T05:21:04.327Z,25.50
2023-04-17T05:23:56.044Z,25.60
2023-04-17T05:26:30.769Z,25.60
2023-04-17T05:29:02.689Z,25.70
2023-04-17T05:31:37.854Z,25.70
2023-04-17T05:34:30.284Z,25.50
2023-04-17T05:37:04.945Z,25.50
2023-04-17T05:40:04.900Z,25.50
2023-04-17T05:42:56.637Z,25.50
2023-04-17T05:45:48.643Z,25.50
2023-04-17T05:48:21.506Z,25.30
2023-04-17T05:51:12.734Z,25.20
2023-04-17T05:53:46.530Z,25.20
2023-04-17T05:56:37.843Z,25.30
2023-04-17T05:59:09.522Z,25.20
2023-04-17T06:01:42.038Z,25.00
2023-04-17T06:04:14.613Z,25.10
2023-04-17T06:06:46.200Z,25.20
2023-04-17T06:09:20.355Z,25.10
2023-04-17T06:11:53.436Z,25.10
2023-04-17T06:14:26.495Z,25.20
2023-04-17T06:16:58.918Z,25.10
2023-04-17T06:19:33.092Z,25.20
2023-04-17T06:22:04.949Z,25.10
2023-04-17T06:24:56.285Z,25.10
2023-04-17T06:27:48.804Z,25.10
2023-04-17T06:30:22.614Z,25.10
2023-04-17T06:33:00.507Z,25.10
2023-04-17T06:35:52.030Z,25.00
2023-04-17T06:38:41.381Z,24.90
2023-04-17T06:41:13.009Z,24.90
2023-04-17T06:44:04.240Z,24.80
2023-04-17T06:46:55.370Z,24.80
2023-04-17T06:49:27.763Z,24.70
2023-04-17T06:52:00.579Z,24.70
2023-04-17T06:54:33.435Z,24.70
2023-04-17T06:57:07.771Z,24.50
2023-04-17T06:59:39.387Z,24.50
2023-04-17T07:02:13.967Z,24.50
2023-04-17T07:04:46.694Z,24.50
2023-04-17T07:07:18.044Z,24.40
2023-04-17T07:09:49.721Z,24.40
2023-04-17T07:12:35.139Z,24.40
2023-04-17T07:15:08.310Z,24.40
2023-04-17T07:17:39.824Z,24.40
2023-04-17T07:20:12.927Z,24.40
2023-04-17T07:22:48.275Z,24.40
2023-04-17T07:25:19.895Z,24.40
2023-04-17T07:27:57.657Z,24.40
2023-04-17T07:30:30.129Z,24.40
2023-04-17T07:33:02.862Z,24.40
2023-04-17T07:35:34.898Z,24.20
2023-04-17T07:38:08.760Z,24.20
2023-04-17T07:40:51.554Z,24.30
2023-04-17T07:43:23.533Z,24.30
2023-04-17T07:45:54.958Z,24.20
2023-04-17T07:48:38.860Z,24.00
2023-04-17T07:51:13.702Z,24.10
2023-04-17T07:53:45.159Z,24.20
2023-04-17T07:56:16.444Z,24.20
2023-04-17T07:58:53.539Z,24.10
2023-04-17T08:01:25.771Z,24.00
2023-04-17T08:03:57.816Z,24.00
2023-04-17T08:06:29.295Z,24.10
2023-04-17T08:09:01.429Z,24.10
2023-04-17T08:11:57.914Z,24.10
2023-04-17T08:14:29.449Z,24.00
2023-04-17T08:17:03.414Z,24.00
2023-04-17T08:19:34.709Z,24.00
2023-04-17T08:22:08.696Z,24.00
2023-04-17T08:24:42.864Z,24.00
2023-04-17T08:27:16.535Z,23.90
2023-04-17T08:29:47.901Z,23.90
2023-04-17T08:32:19.369Z,23.90
2023-04-17T08:34:50.670Z,23.90
2023-04-17T08:37:22.868Z,23.90
2023-04-17T08:39:55.555Z,23.90
2023-04-17T08:42:27.217Z,23.90
2023-04-17T08:45:18.850Z,23.90
2023-04-17T08:47:51.588Z,23.90
2023-04-17T08:50:23.753Z,23.90
2023-04-17T08:52:58.035Z,23.90
2023-04-17T08:55:31.634Z,23.80
2023-04-17T08:58:05.713Z,23.80
2023-04-17T09:00:39.235Z,23.80
2023-04-17T09:03:14.536Z,23.80
2023-04-17T09:05:50.296Z,23.80
2023-04-17T09:08:23.828Z,23.80
2023-04-17T09:10:57.113Z,23.80
2023-04-17T09:13:31.857Z,23.80
2023-04-17T09:16:09.380Z,23.80
2023-04-17T09:18:41.981Z,23.80
2023-04-17T09:21:34.224Z,23.60
2023-04-17T09:24:09.889Z,23.60
2023-04-17T09:26:43.757Z,23.70
2023-04-17T09:29:16.440Z,23.70
2023-04-17T09:31:49.396Z,23.70
2023-04-17T09:34:23.262Z,23.60
2023-04-17T09:36:56.239Z,23.60
2023-04-17T09:39:28.779Z,23.60
2023-04-17T09:42:08.067Z,23.60
2023-04-17T09:44:59.600Z,23.60
2023-04-17T09:47:31.339Z,23.70
2023-04-17T09:50:04.273Z,23.70
2023-04-17T09:52:35.471Z,23.80
2023-04-17T09:55:11.824Z,23.80
2023-04-17T09:58:05.467Z,23.90
2023-04-17T10:00:38.549Z,23.80
2023-04-17T10:03:12.498Z,23.80
2023-04-17T10:05:44.711Z,23.80
2023-04-17T10:08:16.805Z,23.70
2023-04-17T10:10:48.779Z,23.70
2023-04-17T10:13:22.820Z,23.70
2023-04-17T10:16:34.000Z,23.60
2023-04-17T10:19:35.253Z,23.60
2023-04-17T10:22:21.474Z,23.60
2023-04-17T10:24:54.626Z,23.60
2023-04-17T10:27:33.341Z,23.60
2023-04-17T10:30:08.974Z,23.60
2023-04-17T10:32:44.508Z,23.60
2023-04-17T10:35:19.292Z,23.50
2023-04-17T10:37:53.480Z,23.20
2023-04-17T10:40:38.141Z,23.30
2023-04-17T10:43:54.868Z,23.30
2023-04-17T10:46:29.248Z,23.20
2023-04-17T10:49:00.942Z,23.40
2023-04-17T10:51:33.753Z,23.50
2023-04-17T10:54:12.071Z,23.30
2023-04-17T10:56:53.433Z,23.30
2023-04-17T10:59:45.115Z,23.30
2023-04-17T11:02:19.991Z,23.40
2023-04-17T11:05:12.492Z,23.30
2023-04-17T11:07:46.241Z,23.30
2023-04-17T11:10:22.008Z,23.30
2023-04-17T11:13:02.999Z,23.30
2023-04-17T11:15:42.651Z,23.20
2023-04-17T11:18:16.951Z,22.80
2023-04-17T11:21:08.296Z,23.10
2023-04-17T11:23:40.741Z,23.20
2023-04-17T11:26:12.305Z,23.10
2023-04-17T11:28:44.087Z,23.10
2023-04-17T11:31:18.623Z,23.10
2023-04-17T11:33:51.255Z,23.10
2023-04-17T11:36:26.495Z,23.00
2023-04-17T11:39:20.841Z,22.90
2023-04-17T11:41:54.618Z,23.10
2023-04-17T11:44:26.402Z,23.10
2023-04-17T11:47:14.759Z,23.10
2023-04-17T11:49:48.890Z,23.00
2023-04-17T11:57:54.098Z,22.80
2023-04-17T12:00:47.184Z,22.80
2023-04-17T12:03:40.222Z,23.00
2023-04-17T12:06:32.378Z,22.90
2023-04-17T12:09:04.439Z,22.90
2023-04-17T12:11:37.699Z,22.90
2023-04-17T12:14:29.559Z,22.90
2023-04-17T12:17:20.902Z,22.80
2023-04-17T12:19:53.060Z,22.90
2023-04-17T12:22:48.302Z,22.80
2023-04-17T12:25:20.235Z,22.80
2023-04-17T12:27:53.662Z,22.80
2023-04-17T12:30:31.872Z,22.70
2023-04-17T12:33:03.343Z,22.80
2023-04-17T12:35:35.355Z,22.70
2023-04-17T12:38:28.708Z,22.70
2023-04-17T12:41:24.591Z,22.70
2023-04-17T12:43:59.299Z,22.70
2023-04-17T12:46:31.049Z,22.70
2023-04-17T12:49:04.819Z,22.70
2023-04-17T12:51:41.531Z,22.70
2023-04-17T12:54:13.511Z,22.70
2023-04-17T12:56:45.251Z,22.70
2023-04-17T12:59:56.447Z,22.70
2023-04-17T13:02:30.000Z,22.70
2023-04-17T13:05:01.452Z,22.60
2023-04-17T13:10:21.404Z,22.60
2023-04-17T13:13:12.552Z,22.60
2023-04-17T13:15:48.288Z,22.60
2023-04-17T13:18:43.211Z,22.60
2023-04-17T13:21:16.537Z,22.50
2023-04-17T13:24:28.510Z,22.50
2023-04-17T13:27:00.301Z,22.60
2023-04-17T13:29:32.262Z,22.50
2023-04-17T13:32:06.797Z,22.60
2023-04-17T13:34:44.864Z,22.50
2023-04-17T13:37:36.188Z,22.50
2023-04-17T13:40:09.656Z,22.50
2023-04-17T13:43:15.687Z,22.50
2023-04-17T13:46:11.255Z,22.50
2023-04-17T13:49:02.351Z,22.50
2023-04-17T13:51:33.879Z,22.50
2023-04-17T13:54:07.766Z,22.50
2023-04-17T13:56:40.220Z,22.50
2023-04-17T13:59:12.504Z,22.50
2023-04-17T14:02:08.582Z,22.50
2023-04-17T14:04:46.787Z,22.50
2023-04-17T14:07:22.553Z,22.50
2023-04-17T14:12:46.304Z,22.50
2023-04-17T14:15:18.067Z,22.50
2023-04-17T14:17:49.605Z,22.60
2023-04-17T14:20:21.629Z,22.50
2023-04-17T14:23:13.142Z,22.50
2023-04-17T14:25:54.282Z,22.50
2023-04-17T14:28:26.944Z,22.50
2023-04-17T14:30:58.345Z,22.50
2023-04-17T14:33:31.153Z,22.40
2023-04-17T14:36:06.199Z,22.10
2023-04-17T14:39:03.774Z,22.30
2023-04-17T14:41:36.011Z,22.50
2023-04-17T14:44:08.139Z,22.50
2023-04-17T14:46:40.595Z,22.50
2023-04-17T14:49:55.739Z,22.40
2023-04-17T14:52:38.066Z,22.40
2023-04-17T14:55:12.505Z,22.40
2023-04-17T14:57:45.335Z,22.20
2023-04-17T15:00:17.309Z,22.20
2023-04-17T15:03:11.537Z,22.30
2023-04-17T15:05:43.642Z,22.50
2023-04-17T15:08:15.386Z,22.50
2023-04-17T15:10:51.288Z,22.40
2023-04-17T15:13:24.851Z,22.00
2023-04-17T15:16:01.894Z,22.20
2023-04-17T15:18:33.538Z,22.20
2023-04-17T15:21:05.275Z,22.30
2023-04-17T15:23:57.606Z,22.50
2023-04-17T15:26:33.011Z,22.60
2023-04-17T15:29:25.398Z,22.50
2023-04-17T15:32:01.046Z,22.50
2023-04-17T15:34:58.122Z,22.60
2023-04-17T15:37:50.483Z,22.50
2023-04-17T15:40:22.058Z,22.40
2023-04-17T15:43:13.028Z,22.40
2023-04-17T15:45:47.473Z,22.40
2023-04-17T15:48:18.906Z,22.40
2023-04-17T15:50:50.126Z,22.40
2023-04-17T15:53:41.192Z,22.50
2023-04-17T15:56:13.930Z,22.40
2023-04-17T15:59:18.649Z,22.30
2023-04-17T16:02:02.775Z,22.40
2023-04-17T16:04:34.174Z,22.40
2023-04-17T16:07:07.392Z,22.40
2023-04-17T16:10:00.308Z,22.40
2023-04-17T16:12:51.482Z,22.40
2023-04-17T16:15:22.915Z,22.40
2023-04-17T16:18:00.344Z,22.40
2023-04-17T16:20:32.195Z,22.40
2023-04-17T16:23:04.976Z,22.40
2023-04-17T16:25:37.852Z,22.40
2023-04-17T16:28:30.136Z,22.40
2023-04-17T16:31:01.510Z,22.40
2023-04-17T16:33:32.764Z,22.30
2023-04-17T16:36:24.471Z,22.30
2023-04-17T16:38:55.971Z,22.20
2023-04-17T16:41:30.845Z,22.20
2023-04-17T16:44:02.676Z,22.30
2023-04-17T16:46:52.057Z,22.40
2023-04-17T16:49:27.583Z,22.40
2023-04-17T16:52:05.347Z,22.40
2023-04-17T16:54:37.269Z,22.20
2023-04-17T16:57:08.963Z,22.30
2023-04-17T16:59:47.376Z,22.40
2023-04-17T17:02:23.183Z,22.40
2023-04-17T17:04:58.005Z,22.30
2023-04-17T17:07:30.221Z,22.30
2023-04-17T17:10:03.398Z,22.30
2023-04-17T17:12:34.922Z,22.30
2023-04-17T17:15:08.122Z,22.40
2023-04-17T17:18:00.327Z,22.40
2023-04-17T17:20:31.774Z,22.30
2023-04-17T17:23:06.959Z,22.40
2023-04-17T17:25:39.555Z,22.40
2023-04-17T17:28:10.986Z,22.40
2023-04-17T17:30:42.370Z,22.10
2023-04-17T17:33:13.596Z,22.20
2023-04-17T17:35:45.228Z,22.30
2023-04-17T17:38:16.447Z,22.30
2023-04-17T17:40:47.696Z,22.40
2023-04-17T17:43:19.166Z,22.30
2023-04-17T17:45:51.097Z,22.30
2023-04-17T17:48:23.488Z,22.40
2023-04-17T17:51:01.107Z,22.30
2023-04-17T17:53:32.436Z,22.30
2023-04-17T17:56:04.485Z,22.30
2023-04-17T17:58:39.001Z,22.30
2023-04-17T18:01:10.375Z,22.30
2023-04-17T18:03:48.849Z,22.30
2023-04-17T18:06:21.105Z,22.20
2023-04-17T18:08:54.467Z,22.20
2023-04-17T18:11:26.369Z,22.30
2023-04-17T18:13:57.636Z,22.30
2023-04-17T18:16:33.351Z,22.30
2023-04-17T18:19:06.698Z,22.30
2023-04-17T18:21:38.351Z,22.30
2023-04-17T18:24:10.407Z,22.10
2023-04-17T18:26:42.002Z,21.80
2023-04-17T18:29:13.422Z,22.10
2023-04-17T18:31:44.926Z,22.20
2023-04-17T18:34:16.534Z,22.40
2023-04-17T18:36:48.048Z,22.40
2023-04-17T18:39:22.617Z,22.50
2023-04-17T18:41:53.802Z,22.50
2023-04-17T18:44:25.001Z,22.30
2023-04-17T18:46:56.256Z,22.20
2023-04-17T18:49:29.159Z,22.10
2023-04-17T18:52:00.397Z,22.20
2023-04-17T18:54:32.046Z,22.00
2023-04-17T18:57:03.633Z,22.20
2023-04-17T18:59:34.902Z,22.40
2023-04-17T19:02:06.163Z,22.40
2023-04-17T19:04:37.354Z,22.40
2023-04-17T19:07:09.716Z,22.30
2023-04-17T19:09:40.982Z,22.30
2023-04-17T19:12:12.484Z,22.30
2023-04-17T19:14:44.012Z,22.10
2023-04-17T19:17:15.384Z,22.10
2023-04-17T19:19:46.619Z,22.30
2023-04-17T19:22:19.809Z,22.20
2023-04-17T19:24:51.424Z,22.30
2023-04-17T19:27:22.920Z,22.30
2023-04-17T19:29:54.354Z,22.40
2023-04-17T19:32:25.668Z,22.40
2023-04-17T19:34:58.557Z,22.40
2023-04-17T19:37:31.086Z,22.40
2023-04-17T19:40:04.295Z,22.40
2023-04-17T19:42:40.114Z,22.40
2023-04-17T19:45:12.386Z,22.40
2023-04-17T19:47:43.973Z,22.40
2023-04-17T19:50:15.931Z,22.30
2023-04-17T19:52:47.516Z,22.20
2023-04-17T19:55:19.206Z,22.30
2023-04-17T19:57:51.836Z,22.30
2023-04-17T20:00:22.999Z,22.20
2023-04-17T20:02:54.581Z,22.30
2023-04-17T20:05:25.951Z,22.30
2023-04-17T20:07:57.124Z,22.30
2023-04-17T20:10:28.905Z,22.20
2023-04-17T20:13:00.235Z,22.30
2023-04-17T20:15:31.858Z,22.30
2023-04-17T20:18:03.204Z,22.30
2023-04-17T20:20:36.586Z,22.20
2023-04-17T20:23:08.486Z,22.10
2023-04-17T20:25:39.639Z,22.20
2023-04-17T20:28:11.372Z,22.20
2023-04-17T20:30:42.618Z,22.30
2023-04-17T20:33:13.989Z,22.40
2023-04-17T20:35:45.493Z,22.20
2023-04-17T20:38:18.135Z,22.20
2023-04-17T20:40:49.450Z,22.30
2023-04-17T20:43:20.976Z,22.20
2023-04-17T20:45:52.697Z,22.30
2023-04-17T20:48:24.909Z,22.30
2023-04-17T20:50:56.917Z,22.20
2023-04-17T20:53:28.310Z,22.30
2023-04-17T20:55:59.597Z,22.20
2023-04-17T20:58:30.922Z,22.20
2023-04-17T21:01:02.452Z,22.30
2023-04-17T21:03:34.839Z,22.20
2023-04-17T21:06:06.795Z,22.20
2023-04-17T21:08:38.017Z,22.10
2023-04-17T21:11:09.482Z,22.20
2023-04-17T21:13:40.804Z,22.40
2023-04-17T21:16:15.459Z,22.40
2023-04-17T21:18:47.239Z,22.60
2023-04-17T21:21:18.491Z,22.60
2023-04-17T21:23:49.873Z,22.70
2023-04-17T21:26:21.102Z,22.70
2023-04-17T21:28:52.529Z,22.90
2023-04-17T21:31:23.708Z,23.00
2023-04-17T21:33:55.122Z,22.80
2023-04-17T21:36:26.667Z,22.80
2023-04-17T21:38:58.209Z,23.00
2023-04-17T21:41:29.595Z,23.00
2023-04-17T21:44:04.363Z,23.00
2023-04-17T21:46:35.658Z,23.00
2023-04-17T21:49:07.154Z,23.00
2023-04-17T21:51:38.330Z,23.10
2023-04-17T21:54:11.638Z,23.00
2023-04-17T21:56:42.971Z,23.00
2023-04-17T21:59:14.338Z,22.90
2023-04-17T22:01:45.722Z,23.00
2023-04-17T22:04:17.350Z,23.00
2023-04-17T22:06:48.870Z,22.80
2023-04-17T22:09:21.772Z,22.80
2023-04-17T22:11:53.234Z,22.80
2023-04-17T22:14:24.485Z,22.90
2023-04-17T22:16:55.789Z,22.90
2023-04-17T22:19:27.308Z,22.80
2023-04-17T22:21:58.735Z,22.90
2023-04-17T22:24:30.217Z,22.70
2023-04-17T22:27:01.758Z,22.70
2023-04-17T22:29:33.054Z,22.60
2023-04-17T22:32:04.468Z,22.90
2023-04-17T22:34:36.067Z,22.70
2023-04-17T22:37:07.567Z,22.80
2023-04-17T22:39:38.934Z,22.90
2023-04-17T22:42:10.317Z,22.90
2023-04-17T22:44:41.418Z,23.00
2023-04-17T22:47:12.596Z,22.90
2023-04-17T22:49:44.090Z,22.80
2023-04-17T22:52:15.446Z,22.90
2023-04-17T22:54:46.972Z,23.00
2023-04-17T22:57:18.278Z,22.90
2023-04-17T22:59:50.683Z,22.80
2023-04-17T23:02:22.041Z,22.80
2023-04-17T23:04:53.445Z,22.80
2023-04-17T23:07:24.864Z,22.70
2023-04-17T23:09:56.141Z,22.70
2023-04-17T23:12:27.333Z,22.60
2023-04-17T23:15:00.529Z,22.70
2023-04-17T23:17:32.495Z,22.70
2023-04-17T23:20:03.968Z,22.80
2023-04-17T23:22:35.334Z,22.90
2023-04-17T23:25:07.184Z,23.00
2023-04-17T23:27:38.397Z,23.10
2023-04-17T23:30:10.223Z,23.00
2023-04-17T23:32:43.402Z,22.80
2023-04-17T23:35:15.081Z,22.90
2023-04-17T23:37:47.633Z,22.80
2023-04-17T23:40:19.252Z,22.90
2023-04-17T23:42:51.820Z,22.90
2023-04-17T23:45:23.764Z,22.80
2023-04-17T23:47:55.091Z,23.10
2023-04-17T23:50:26.323Z,23.20
2023-04-17T23:52:57.832Z,23.00
2023-04-17T23:55:29.573Z,23.20
2023-04-17T23:58:00.788Z,23.10
